createdAt,value
2019-03-17T00:01:57.648Z,96782.77
2019-03-17T00:04:31.492Z,96782.20
2019-03-17T00:06:50.972Z,96780.61
2019-03-17T00:09:17.556Z,96777.91
2019-03-17T00:11:44.144Z,96779.77
2019-03-17T00:14:10.660Z,96771.22
2019-03-17T00:16:37.276Z,96766.58
2019-03-17T00:19:03.938Z,96765.98
2019-03-17T00:21:30.494Z,96775.07
2019-03-17T00:23:56.999Z,96770.52
2019-03-17T00:26:23.589Z,96766.18
2019-03-17T00:28:50.106Z,96757.82
2019-03-17T00:31:23.634Z,96760.19
2019-03-17T00:33:45.728Z,96755.92
2019-03-17T00:36:12.236Z,96749.74
2019-03-17T00:38:38.849Z,96745.69
2019-03-17T00:41:05.462Z,96738.70
2019-03-17T00:43:31.980Z,96740.08
2019-03-17T00:45:59.750Z,96742.41
2019-03-17T00:48:26.262Z,96740.27
2019-03-17T00:50:52.977Z,96742.66
2019-03-17T00:53:19.513Z,96737.11
2019-03-17T00:55:46.325Z,96738.45
2019-03-17T00:58:12.897Z,96744.38
2019-03-17T01:00:39.465Z,96736.33
2019-03-17T01:03:06.077Z,96730.16
2019-03-17T01:05:32.693Z,96729.91
2019-03-17T01:07:59.468Z,96721.58
2019-03-17T01:10:25.979Z,96725.88
2019-03-17T01:12:52.680Z,96719.17
2019-03-17T01:15:20.433Z,96722.92
2019-03-17T01:17:46.932Z,96723.45
2019-03-17T01:20:13.582Z,96717.27
2019-03-17T01:22:40.208Z,96715.93
2019-03-17T01:25:06.965Z,96713.50
2019-03-17T01:27:33.585Z,96705.67
2019-03-17T01:30:00.406Z,96704.02
2019-03-17T01:32:26.882Z,96700.78
2019-03-17T01:34:53.392Z,96702.63
2019-03-17T01:37:19.952Z,96701.22
2019-03-17T01:39:46.464Z,96696.11
2019-03-17T01:42:13.026Z,96692.59
2019-03-17T01:44:39.555Z,96695.52
2019-03-17T01:47:06.151Z,96691.22
2019-03-17T01:49:32.772Z,96688.50
2019-03-17T01:51:59.456Z,96687.66
2019-03-17T01:54:25.964Z,96678.84
2019-03-17T01:56:52.613Z,96688.44
2019-03-17T01:59:19.135Z,96679.55
2019-03-17T02:01:46.838Z,96693.73
2019-03-17T02:04:13.441Z,96676.31
2019-03-17T02:06:39.962Z,96675.00
2019-03-17T02:09:06.725Z,96675.25
2019-03-17T02:11:33.402Z,96676.56
2019-03-17T02:14:00.004Z,96665.81
2019-03-17T02:16:26.528Z,96666.34
2019-03-17T02:18:53.090Z,96671.67
2019-03-17T02:21:19.814Z,96674.35
2019-03-17T02:23:46.441Z,96671.95
2019-03-17T02:26:13.234Z,96668.70
2019-03-17T02:28:39.879Z,96671.14
2019-03-17T02:31:06.513Z,96663.91
2019-03-17T02:33:33.311Z,96661.48
2019-03-17T02:35:59.997Z,96662.81
2019-03-17T02:38:26.516Z,96661.73
2019-03-17T02:40:53.128Z,96651.22
2019-03-17T02:43:19.734Z,96658.14
2019-03-17T02:45:46.357Z,96652.19
2019-03-17T02:48:13.125Z,96651.09
2019-03-17T02:50:39.640Z,96649.19
2019-03-17T02:53:06.592Z,96650.50
2019-03-17T02:55:33.161Z,96646.98
2019-03-17T02:57:59.887Z,96642.14
2019-03-17T03:00:26.582Z,96644.05
2019-03-17T03:02:53.113Z,96638.41
2019-03-17T03:05:19.768Z,96642.67
2019-03-17T03:07:46.545Z,96638.09
2019-03-17T03:10:13.396Z,96633.23
2019-03-17T03:12:39.952Z,96637.98
2019-03-17T03:15:06.819Z,96625.66
2019-03-17T03:17:33.575Z,96628.02
2019-03-17T03:20:00.696Z,96633.66
2019-03-17T03:22:27.568Z,96630.13
2019-03-17T03:24:54.128Z,96624.49
2019-03-17T03:27:20.845Z,96630.63
2019-03-17T03:29:47.478Z,96633.41
2019-03-17T03:32:14.327Z,96632.59
2019-03-17T03:34:40.844Z,96639.83
2019-03-17T03:37:07.605Z,96630.16
2019-03-17T03:39:34.249Z,96632.28
2019-03-17T03:42:00.825Z,96626.67
2019-03-17T03:44:27.470Z,96630.98
2019-03-17T03:46:54.113Z,96621.11
2019-03-17T03:49:20.894Z,96627.80
2019-03-17T03:51:47.448Z,96622.45
2019-03-17T03:54:14.123Z,96621.11
2019-03-17T03:56:40.775Z,96613.32
2019-03-17T03:59:07.430Z,96617.55
2019-03-17T04:01:34.070Z,96619.10
2019-03-17T04:04:00.710Z,96620.16
2019-03-17T04:06:27.420Z,96615.02
2019-03-17T04:08:54.246Z,96620.02
2019-03-17T04:11:21.013Z,96608.98
2019-03-17T04:13:47.556Z,96612.69
2019-03-17T04:16:14.229Z,96607.54
2019-03-17T04:18:41.070Z,96608.28
2019-03-17T04:21:07.707Z,96604.25
2019-03-17T04:23:34.539Z,96604.22
2019-03-17T04:26:01.400Z,96606.33
2019-03-17T04:28:28.224Z,96600.41
2019-03-17T04:30:54.893Z,96603.58
2019-03-17T04:33:21.634Z,96602.23
2019-03-17T04:35:48.261Z,96595.23
2019-03-17T04:38:14.915Z,96604.27
2019-03-17T04:40:41.753Z,96592.69
2019-03-17T04:43:08.416Z,96596.16
2019-03-17T04:45:35.142Z,96593.16
2019-03-17T04:48:01.713Z,96588.86
2019-03-17T04:50:28.411Z,96587.16
2019-03-17T04:52:55.077Z,96582.87
2019-03-17T04:55:21.737Z,96585.30
2019-03-17T04:57:48.421Z,96584.17
2019-03-17T05:00:15.162Z,96590.81
2019-03-17T05:02:41.930Z,96583.08
2019-03-17T05:05:09.091Z,96584.94
2019-03-17T05:07:35.862Z,96585.98
2019-03-17T05:10:03.286Z,96590.86
2019-03-17T05:12:29.944Z,96592.19
2019-03-17T05:14:56.784Z,96594.63
2019-03-17T05:17:23.536Z,96593.53
2019-03-17T05:19:50.090Z,96599.45
2019-03-17T05:22:16.768Z,96606.66
2019-03-17T05:24:43.407Z,96604.95
2019-03-17T05:27:10.181Z,96603.66
2019-03-17T05:29:36.842Z,96606.38
2019-03-17T05:32:03.654Z,96598.67
2019-03-17T05:34:30.197Z,96595.47
2019-03-17T05:37:06.103Z,96591.78
2019-03-17T05:39:25.740Z,96586.75
2019-03-17T05:41:52.426Z,96586.80
2019-03-17T05:44:19.008Z,96587.37
2019-03-17T05:46:45.754Z,96569.56
2019-03-17T05:49:12.338Z,96574.22
2019-03-17T05:51:39.082Z,96580.20
2019-03-17T05:54:05.752Z,96579.53
2019-03-17T05:56:32.543Z,96583.41
2019-03-17T05:58:59.330Z,96584.29
2019-03-17T06:01:26.110Z,96566.95
2019-03-17T06:03:52.654Z,96575.82
2019-03-17T06:06:19.335Z,96564.30
2019-03-17T06:08:46.044Z,96555.17
2019-03-17T06:11:12.694Z,96555.70
2019-03-17T06:13:39.411Z,96542.34
2019-03-17T06:16:06.067Z,96548.79
2019-03-17T06:18:32.752Z,96559.25
2019-03-17T06:20:59.424Z,96573.23
2019-03-17T06:23:25.992Z,96556.95
2019-03-17T06:25:52.547Z,96571.77
2019-03-17T06:28:21.518Z,96564.05
2019-03-17T06:30:47.836Z,96575.46
2019-03-17T06:33:15.659Z,96562.17
2019-03-17T06:35:42.442Z,96561.23
2019-03-17T06:38:09.271Z,96566.66
2019-03-17T06:40:35.808Z,96569.90
2019-03-17T06:43:04.160Z,96557.37
2019-03-17T06:45:31.234Z,96557.39
2019-03-17T06:47:58.638Z,96553.38
2019-03-17T06:50:25.626Z,96546.66
2019-03-17T06:52:53.643Z,96552.31
2019-03-17T06:55:20.925Z,96541.65
2019-03-17T06:57:47.723Z,96540.44
2019-03-17T07:00:14.700Z,96551.52
2019-03-17T07:02:41.575Z,96538.17
2019-03-17T07:05:08.466Z,96530.19
2019-03-17T07:07:43.838Z,96538.34
2019-03-17T07:10:06.608Z,96544.55
2019-03-17T07:12:33.395Z,96554.55
2019-03-17T07:15:00.249Z,96544.64
2019-03-17T07:17:28.175Z,96547.89
2019-03-17T07:19:56.138Z,96550.89
2019-03-17T07:22:22.903Z,96553.30
2019-03-17T07:24:49.667Z,96556.28
2019-03-17T07:27:16.462Z,96540.41
2019-03-17T07:29:43.140Z,96542.00
2019-03-17T07:32:09.982Z,96540.69
2019-03-17T07:34:36.686Z,96549.53
2019-03-17T07:37:03.593Z,96548.17
2019-03-17T07:39:30.356Z,96547.31
2019-03-17T07:41:57.045Z,96545.41
2019-03-17T07:44:23.923Z,96539.40
2019-03-17T07:46:50.631Z,96545.52
2019-03-17T07:49:17.612Z,96539.50
2019-03-17T07:51:44.531Z,96528.59
2019-03-17T07:54:11.277Z,96524.94
2019-03-17T07:56:38.018Z,96523.11
2019-03-17T07:59:04.902Z,96516.87
2019-03-17T08:01:31.723Z,96522.62
2019-03-17T08:03:58.491Z,96523.34
2019-03-17T08:06:26.489Z,96530.22
2019-03-17T08:08:53.324Z,96529.27
2019-03-17T08:11:20.013Z,96524.13
2019-03-17T08:13:46.829Z,96518.17
2019-03-17T08:16:13.499Z,96510.55
2019-03-17T08:18:40.157Z,96510.23
2019-03-17T08:21:07.059Z,96514.61
2019-03-17T08:23:33.860Z,96509.84
2019-03-17T08:26:00.688Z,96508.98
2019-03-17T08:28:27.375Z,96501.15
2019-03-17T08:30:54.192Z,96505.45
2019-03-17T08:33:20.983Z,96491.80
2019-03-17T08:35:47.740Z,96491.78
2019-03-17T08:38:21.723Z,96486.62
2019-03-17T08:40:43.089Z,96488.88
2019-03-17T08:43:09.859Z,96493.56
2019-03-17T08:45:36.551Z,96495.61
2019-03-17T08:48:03.400Z,96500.84
2019-03-17T08:50:30.223Z,96506.05
2019-03-17T08:52:56.797Z,96510.19
2019-03-17T08:55:23.516Z,96510.41
2019-03-17T08:57:50.169Z,96503.74
2019-03-17T09:00:17.036Z,96505.11
2019-03-17T09:02:44.534Z,96491.28
2019-03-17T09:05:11.755Z,96489.31
2019-03-17T09:07:38.590Z,96479.22
2019-03-17T09:10:07.072Z,96481.02
2019-03-17T09:12:33.835Z,96478.09
2019-03-17T09:15:00.629Z,96476.58
2019-03-17T09:17:27.361Z,96483.03
2019-03-17T09:19:54.123Z,96474.61
2019-03-17T09:22:21.018Z,96480.94
2019-03-17T09:24:47.679Z,96473.20
2019-03-17T09:27:14.238Z,96480.22
2019-03-17T09:29:41.091Z,96482.81
2019-03-17T09:32:07.841Z,96485.53
2019-03-17T09:34:34.608Z,96480.59
2019-03-17T09:37:01.406Z,96479.81
2019-03-17T09:39:28.167Z,96482.43
2019-03-17T09:41:54.885Z,96482.58
2019-03-17T09:44:21.711Z,96473.38
2019-03-17T09:46:48.369Z,96481.68
2019-03-17T09:49:15.255Z,96484.30
2019-03-17T09:51:42.139Z,96472.57
2019-03-17T09:54:08.923Z,96466.38
2019-03-17T09:56:35.746Z,96465.26
2019-03-17T09:59:02.566Z,96465.41
2019-03-17T10:01:29.245Z,96451.86
2019-03-17T10:03:55.922Z,96457.53
2019-03-17T10:06:22.838Z,96448.67
2019-03-17T10:08:59.433Z,96442.04
2019-03-17T10:11:18.172Z,96433.24
2019-03-17T10:13:44.952Z,96427.33
2019-03-17T10:16:11.774Z,96427.73
2019-03-17T10:18:38.529Z,96419.22
2019-03-17T10:21:05.368Z,96417.14
2019-03-17T10:23:32.050Z,96416.41
2019-03-17T10:25:58.843Z,96406.28
2019-03-17T10:28:25.620Z,96407.38
2019-03-17T10:30:52.417Z,96410.28
2019-03-17T10:33:19.313Z,96410.53
2019-03-17T10:35:46.105Z,96403.34
2019-03-17T10:38:12.780Z,96402.56
2019-03-17T10:40:39.476Z,96399.18
2019-03-17T10:43:06.496Z,96389.27
2019-03-17T10:45:35.957Z,96393.03
2019-03-17T10:48:02.761Z,96383.50
2019-03-17T10:50:29.510Z,96379.34
2019-03-17T10:52:56.291Z,96376.42
2019-03-17T10:55:22.930Z,96365.95
2019-03-17T10:57:49.605Z,96360.00
2019-03-17T11:00:16.691Z,96338.17
2019-03-17T11:02:43.446Z,96344.19
2019-03-17T11:05:10.617Z,96346.03
2019-03-17T11:07:37.481Z,96338.04
2019-03-17T11:10:04.907Z,96331.11
2019-03-17T11:12:31.734Z,96323.11
2019-03-17T11:14:58.495Z,96329.64
2019-03-17T11:17:25.430Z,96322.77
2019-03-17T11:19:52.212Z,96318.30
2019-03-17T11:22:19.098Z,96314.61
2019-03-17T11:24:45.822Z,96312.61
2019-03-17T11:27:12.569Z,96313.44
2019-03-17T11:29:39.445Z,96315.15
2019-03-17T11:32:06.761Z,96311.17
2019-03-17T11:34:33.646Z,96313.58
2019-03-17T11:37:00.489Z,96314.02
2019-03-17T11:39:37.206Z,96301.67
2019-03-17T11:41:55.802Z,96310.20
2019-03-17T11:44:22.739Z,96315.44
2019-03-17T11:46:49.510Z,96293.74
2019-03-17T11:49:16.260Z,96293.92
2019-03-17T11:51:43.004Z,96287.63
2019-03-17T11:54:09.775Z,96286.66
2019-03-17T11:56:36.629Z,96283.48
2019-03-17T11:59:03.372Z,96275.02
2019-03-17T12:01:30.369Z,96264.81
2019-03-17T12:03:57.145Z,96267.72
2019-03-17T12:06:23.853Z,96247.04
2019-03-17T12:08:50.546Z,96248.47
2019-03-17T12:11:17.237Z,96251.61
2019-03-17T12:13:44.142Z,96250.58
2019-03-17T12:16:10.839Z,96236.08
2019-03-17T12:18:37.614Z,96221.35
2019-03-17T12:21:04.368Z,96218.45
2019-03-17T12:23:31.127Z,96200.45
2019-03-17T12:25:57.947Z,96196.88
2019-03-17T12:28:24.837Z,96184.01
2019-03-17T12:30:51.680Z,96185.62
2019-03-17T12:33:18.435Z,96198.65
2019-03-17T12:35:45.189Z,96188.34
2019-03-17T12:38:11.883Z,96200.25
2019-03-17T12:40:38.668Z,96195.63
2019-03-17T12:43:05.643Z,96200.02
2019-03-17T12:45:32.484Z,96190.60
2019-03-17T12:47:59.497Z,96198.22
2019-03-17T12:50:26.329Z,96185.56
2019-03-17T12:52:53.194Z,96204.55
2019-03-17T12:55:20.112Z,96195.80
2019-03-17T12:57:46.917Z,96195.59
2019-03-17T13:00:14.254Z,96181.33
2019-03-17T13:02:40.929Z,96180.53
2019-03-17T13:05:08.259Z,96172.17
2019-03-17T13:07:35.206Z,96177.69
2019-03-17T13:10:14.656Z,96163.06
2019-03-17T13:12:30.771Z,96175.34
2019-03-17T13:14:57.547Z,96166.96
2019-03-17T13:17:25.522Z,96184.19
2019-03-17T13:19:52.261Z,96149.81
2019-03-17T13:22:19.203Z,96142.74
2019-03-17T13:24:46.004Z,96165.23
2019-03-17T13:27:12.903Z,96165.95
2019-03-17T13:29:39.773Z,96168.24
2019-03-17T13:32:06.674Z,96162.09
2019-03-17T13:34:33.602Z,96154.09
2019-03-17T13:37:00.423Z,96155.64
2019-03-17T13:39:27.312Z,96154.84
2019-03-17T13:41:54.285Z,96161.27
2019-03-17T13:44:23.015Z,96151.45
2019-03-17T13:46:49.879Z,96144.75
2019-03-17T13:49:16.762Z,96146.95
2019-03-17T13:51:43.659Z,96135.00
2019-03-17T13:54:10.642Z,96140.05
2019-03-17T13:56:37.934Z,96122.52
2019-03-17T13:59:06.483Z,96134.81
2019-03-17T14:01:33.541Z,96127.38
2019-03-17T14:04:00.540Z,96134.25
2019-03-17T14:06:27.387Z,96136.63
2019-03-17T14:08:54.394Z,96140.14
2019-03-17T14:11:21.265Z,96112.92
2019-03-17T14:13:47.964Z,96118.89
2019-03-17T14:16:15.877Z,96132.61
2019-03-17T14:18:42.829Z,96144.41
2019-03-17T14:21:09.924Z,96129.42
2019-03-17T14:23:36.861Z,96113.99
2019-03-17T14:26:03.790Z,96103.83
2019-03-17T14:28:30.782Z,96121.94
2019-03-17T14:30:57.559Z,96122.89
2019-03-17T14:33:27.581Z,96129.65
2019-03-17T14:35:54.774Z,96124.98
2019-03-17T14:38:21.641Z,96139.50
2019-03-17T14:40:53.423Z,96143.10
2019-03-17T14:43:17.108Z,96140.95
2019-03-17T14:45:43.890Z,96127.30
2019-03-17T14:48:10.871Z,96117.20
2019-03-17T14:50:37.719Z,96134.53
2019-03-17T14:53:04.607Z,96134.58
2019-03-17T14:55:31.293Z,96142.75
2019-03-17T14:57:58.177Z,96119.52
2019-03-17T15:00:24.923Z,96113.26
2019-03-17T15:02:51.691Z,96117.44
2019-03-17T15:05:18.651Z,96131.71
2019-03-17T15:07:45.623Z,96135.40
2019-03-17T15:10:13.899Z,96118.33
2019-03-17T15:12:40.765Z,96128.34
2019-03-17T15:15:09.141Z,96117.79
2019-03-17T15:17:36.074Z,96111.97
2019-03-17T15:20:04.796Z,96121.58
2019-03-17T15:22:31.871Z,96116.86
2019-03-17T15:24:58.686Z,96124.17
2019-03-17T15:27:25.650Z,96141.80
2019-03-17T15:29:52.598Z,96158.91
2019-03-17T15:32:19.528Z,96150.83
2019-03-17T15:34:46.145Z,96152.37
2019-03-17T15:37:12.943Z,96161.21
2019-03-17T15:39:39.749Z,96170.11
2019-03-17T15:42:06.617Z,96168.70
2019-03-17T15:44:33.337Z,96163.83
2019-03-17T15:47:00.072Z,96177.64
2019-03-17T15:49:26.818Z,96177.11
2019-03-17T15:51:53.662Z,96171.73
2019-03-17T15:54:21.676Z,96172.89
2019-03-17T15:56:48.564Z,96166.47
2019-03-17T15:59:15.399Z,96186.52
2019-03-17T16:01:42.200Z,96187.39
2019-03-17T16:04:08.958Z,96187.02
2019-03-17T16:06:35.723Z,96194.20
2019-03-17T16:09:03.410Z,96203.79
2019-03-17T16:11:31.353Z,96214.23
2019-03-17T16:13:58.302Z,96217.16
2019-03-17T16:16:25.044Z,96236.72
2019-03-17T16:18:52.005Z,96256.38
2019-03-17T16:21:18.693Z,96270.35
2019-03-17T16:23:45.563Z,96266.61
2019-03-17T16:26:12.275Z,96272.96
2019-03-17T16:28:39.190Z,96274.14
2019-03-17T16:31:05.961Z,96292.17
2019-03-17T16:33:32.767Z,96302.42
2019-03-17T16:35:59.611Z,96322.69
2019-03-17T16:38:26.255Z,96356.05
2019-03-17T16:40:52.929Z,96370.17
2019-03-17T16:43:19.680Z,96369.56
2019-03-17T16:45:46.349Z,96407.75
2019-03-17T16:48:13.276Z,96442.34
2019-03-17T16:50:40.173Z,96452.81
2019-03-17T16:53:06.834Z,96472.36
2019-03-17T16:55:33.564Z,96480.68
2019-03-17T16:58:00.447Z,96511.83
2019-03-17T17:00:27.679Z,96543.31
2019-03-17T17:02:54.493Z,96561.92
2019-03-17T17:05:21.377Z,96546.77
2019-03-17T17:07:48.117Z,96574.38
2019-03-17T17:10:15.812Z,96580.98
2019-03-17T17:12:42.653Z,96606.20
2019-03-17T17:15:12.170Z,96604.67
2019-03-17T17:17:38.985Z,96624.96
2019-03-17T17:20:07.342Z,96628.78
2019-03-17T17:22:35.122Z,96632.81
2019-03-17T17:25:02.039Z,96639.73
2019-03-17T17:27:28.835Z,96629.38
2019-03-17T17:29:55.610Z,96625.29
2019-03-17T17:32:22.463Z,96623.13
2019-03-17T17:34:49.257Z,96632.91
2019-03-17T17:37:16.161Z,96639.60
2019-03-17T17:39:42.961Z,96642.12
2019-03-17T17:42:10.483Z,96657.00
2019-03-17T17:44:37.213Z,96652.03
2019-03-17T17:47:04.098Z,96662.66
2019-03-17T17:49:30.881Z,96666.02
2019-03-17T17:51:57.572Z,96669.92
2019-03-17T17:54:24.420Z,96672.77
2019-03-17T17:56:51.251Z,96683.06
2019-03-17T17:59:18.103Z,96678.83
2019-03-17T18:01:45.056Z,96684.25
2019-03-17T18:04:11.882Z,96687.77
2019-03-17T18:06:38.697Z,96684.55
2019-03-17T18:09:06.927Z,96681.05
2019-03-17T18:11:33.723Z,96693.23
2019-03-17T18:14:00.718Z,96688.45
2019-03-17T18:16:27.498Z,96683.59
2019-03-17T18:18:54.174Z,96684.16
2019-03-17T18:21:20.918Z,96687.66
2019-03-17T18:23:47.678Z,96692.26
2019-03-17T18:26:14.492Z,96681.74
2019-03-17T18:28:41.179Z,96689.03
2019-03-17T18:31:07.972Z,96692.82
2019-03-17T18:33:34.637Z,96701.73
2019-03-17T18:36:01.563Z,96707.66
2019-03-17T18:38:28.293Z,96708.48
2019-03-17T18:40:55.059Z,96712.84
2019-03-17T18:43:21.886Z,96732.00
2019-03-17T18:45:48.718Z,96733.84
2019-03-17T18:48:15.442Z,96741.44
2019-03-17T18:50:42.130Z,96741.72
2019-03-17T18:53:08.873Z,96738.75
2019-03-17T18:55:35.713Z,96742.00
2019-03-17T18:58:03.596Z,96743.34
2019-03-17T19:00:30.582Z,96758.73
2019-03-17T19:02:57.288Z,96774.39
2019-03-17T19:05:24.171Z,96773.56
2019-03-17T19:07:50.985Z,96781.12
2019-03-17T19:10:17.662Z,96788.14
2019-03-17T19:12:45.923Z,96812.69
2019-03-17T19:15:13.386Z,96814.04
2019-03-17T19:17:40.112Z,96821.05
2019-03-17T19:20:07.800Z,96820.74
2019-03-17T19:22:34.571Z,96825.64
2019-03-17T19:25:01.341Z,96831.58
2019-03-17T19:27:28.223Z,96835.36
2019-03-17T19:29:54.891Z,96846.42
2019-03-17T19:32:21.661Z,96852.08
2019-03-17T19:34:48.932Z,96856.41
2019-03-17T19:37:15.754Z,96863.95
2019-03-17T19:39:42.444Z,96878.52
2019-03-17T19:42:09.149Z,96894.16
2019-03-17T19:44:35.789Z,96883.37
2019-03-17T19:47:02.623Z,96893.89
2019-03-17T19:49:29.404Z,96896.05
2019-03-17T19:51:56.081Z,96912.77
2019-03-17T19:54:22.641Z,96911.70
2019-03-17T19:56:49.523Z,96912.77
2019-03-17T19:59:16.322Z,96917.63
2019-03-17T20:01:43.018Z,96937.88
2019-03-17T20:04:09.888Z,96937.34
2019-03-17T20:06:36.677Z,96941.39
2019-03-17T20:09:06.019Z,96942.73
2019-03-17T20:11:32.943Z,96935.17
2019-03-17T20:13:59.639Z,96941.91
2019-03-17T20:16:26.691Z,96942.44
2019-03-17T20:18:53.583Z,96947.29
2019-03-17T20:21:20.319Z,96941.62
2019-03-17T20:23:47.112Z,96945.13
2019-03-17T20:26:13.926Z,96955.64
2019-03-17T20:28:40.681Z,96947.28
2019-03-17T20:31:07.393Z,96947.80
2019-03-17T20:33:35.193Z,96959.13
2019-03-17T20:36:01.993Z,96969.36
2019-03-17T20:38:28.684Z,96975.30
2019-03-17T20:40:56.543Z,96976.11
2019-03-17T20:43:34.253Z,96983.65
2019-03-17T20:45:52.172Z,96987.14
2019-03-17T20:48:19.215Z,96989.84
2019-03-17T20:50:46.137Z,96999.00
2019-03-17T20:53:13.010Z,96999.00
2019-03-17T20:55:39.863Z,96993.09
2019-03-17T20:58:06.759Z,97001.16
2019-03-17T21:00:33.486Z,97000.06
2019-03-17T21:03:00.325Z,97010.31
2019-03-17T21:05:27.309Z,97007.85
2019-03-17T21:07:54.048Z,97015.94
2019-03-17T21:10:20.908Z,97017.28
2019-03-17T21:12:47.752Z,97018.33
2019-03-17T21:15:14.629Z,97016.42
2019-03-17T21:17:41.873Z,97024.19
2019-03-17T21:20:10.966Z,97023.38
2019-03-17T21:22:37.690Z,97019.31
2019-03-17T21:25:04.677Z,97019.31
2019-03-17T21:27:31.368Z,97022.00
2019-03-17T21:29:58.170Z,97038.97
2019-03-17T21:32:25.018Z,97051.05
2019-03-17T21:34:51.870Z,97041.60
2019-03-17T21:37:18.761Z,97046.16
2019-03-17T21:39:45.624Z,97051.51
2019-03-17T21:42:12.387Z,97049.08
2019-03-17T21:44:40.484Z,97047.19
2019-03-17T21:47:07.232Z,97042.31
2019-03-17T21:49:33.935Z,97045.80
2019-03-17T21:52:00.788Z,97044.37
2019-03-17T21:54:27.532Z,97050.00
2019-03-17T21:56:54.281Z,97059.70
2019-03-17T21:59:20.929Z,97072.05
2019-03-17T22:01:47.704Z,97070.17
2019-03-17T22:04:14.449Z,97077.92
2019-03-17T22:06:41.212Z,97071.72
2019-03-17T22:09:07.980Z,97073.63
2019-03-17T22:11:34.641Z,97080.06
2019-03-17T22:14:11.684Z,97095.40
2019-03-17T22:16:30.267Z,97087.02
2019-03-17T22:18:56.966Z,97087.78
2019-03-17T22:21:23.642Z,97095.58
2019-03-17T22:23:50.336Z,97093.14
2019-03-17T22:26:17.011Z,97101.23
2019-03-17T22:28:43.671Z,97093.16
2019-03-17T22:31:11.544Z,97084.00
2019-03-17T22:33:38.220Z,97091.77
2019-03-17T22:36:04.872Z,97097.66
2019-03-17T22:38:31.548Z,97105.48
2019-03-17T22:40:58.275Z,97117.81
2019-03-17T22:43:25.012Z,97120.53
2019-03-17T22:45:52.904Z,97132.67
2019-03-17T22:48:19.577Z,97136.95
2019-03-17T22:50:46.249Z,97140.52
2019-03-17T22:53:12.867Z,97143.77
2019-03-17T22:55:39.416Z,97145.95
2019-03-17T22:58:06.189Z,97152.16
2019-03-17T23:00:41.222Z,97150.80
2019-03-17T23:03:07.903Z,97154.59
2019-03-17T23:05:34.752Z,97150.58
2019-03-17T23:08:01.447Z,97158.66
2019-03-17T23:10:28.106Z,97173.45
2019-03-17T23:12:54.863Z,97172.14
2019-03-17T23:15:21.758Z,97173.99
2019-03-17T23:17:48.552Z,97179.91
2019-03-17T23:20:15.447Z,97174.83
2019-03-17T23:22:42.267Z,97176.97
2019-03-17T23:25:08.926Z,97181.81
2019-03-17T23:27:35.793Z,97190.45
2019-03-17T23:30:02.673Z,97192.08
2019-03-17T23:32:29.337Z,97187.23
2019-03-17T23:34:56.192Z,97197.69
2019-03-17T23:37:22.866Z,97178.25
2019-03-17T23:39:49.568Z,97186.13
2019-03-17T23:42:16.281Z,97180.23
2019-03-17T23:44:48.735Z,97181.56
2019-03-17T23:47:11.408Z,97180.22
2019-03-17T23:49:37.971Z,97181.45
2019-03-17T23:52:04.629Z,97192.78
2019-03-17T23:54:31.232Z,97198.38
2019-03-17T23:56:57.893Z,97201.27
2019-03-17T23:59:24.699Z,97199.32
